Plymouth Light

42° 00' 12"N, 70° 36' 04"W, Elevation 54 ft.
Eastern Time

Hourly observations for the last 72 hours

Date Time Temperature (°F) Humi-
dity

(%)
Wind
(mph)
Pressure Rain (in) Sun
(W/m2)
ET
(in)
Air Dew 6 Hour 1 Hr 3 Hr 6 Hr Day
Alt
(in)
Sea
Level

(mb)
Max Min
23 13:00 34.6 28.5 34.8 28.5 78 ENE 5 G 7 30.37 1028.6 0.00 410 0.034
23 12:00 34.4 27.3 75 NNE 5 G 7 30.41 1029.9 0.00 468 0.027
23 11:00 33.8 27.0 76 NNE 5 G 10 30.43 1030.6 0.00 501 0.020
23 10:00 33.5 26.4 75 N 6 G 12 30.44 1031.0 0.00 429 0.014
23 09:00 32.3 25.3 75 N 10 G 14 30.45 1031.2 0.00 320 0.010
23 08:00 30.1 24.1 78 NNW 5 G 9 30.46 1031.5 0.00 218 0.008
23 07:00 28.5 23.1 35.4 28.2 80 NNW 5 G 9 30.45 1031.2 0.00 46 0.007
23 06:00 28.6 22.6 78 NNW 5 G 9 30.44 1030.8 0.00 0 0.006
23 05:00 29.3 23.6 79 NNW 4 G 8 30.42 1030.2 0.00 0 0.005
23 04:00 31.0 24.0 75 NNW 5 G 10 30.41 1029.9 0.00 0 0.004
23 03:00 33.3 24.6 70 N 9 G 15 30.41 1029.9 0.00 0 0.003
23 02:00 34.2 24.7 68 N 12 G 16 30.42 1030.1 0.00 0 0.001
23 01:00 35.4 26.2 35.7 33.0 69 N 13 G 20 30.41 1029.8 0.00 0 0.000
23 00:00 33.7 27.3 77 N 4 G 10 30.38 1028.9 0.00 0 0.076
22 23:00 33.1 26.4 76 NNW 4 G 6 30.36 1028.2 0.00 0 0.075
22 22:00 34.5 26.4 72 N 7 G 11 30.36 1028.1 0.00 0 0.074
22 21:00 35.0 29.5 80 W 4 G 7 30.36 1028.0 0.00 0 0.074
22 20:00 35.5 28.7 76 WSW 4 G 9 30.33 1027.3 0.00 0 0.073
22 19:00 35.5 29.3 38.9 35.5 78 SW 3 G 6 30.32 1026.9 0.00 0 0.072
22 18:00 36.5 30.6 79 SSW 6 G 8 30.30 1025.9 0.00 0 0.071
22 17:00 36.5 30.3 78 S 5 G 8 30.28 1025.5 0.00 28 0.069
22 16:00 37.5 30.6 76 ESE 3 G 7 30.26 1024.8 0.00 186 0.065
22 15:00 38.0 31.1 76 ENE 6 G 9 30.24 1024.1 0.00 364 0.058
22 14:00 38.7 29.8 70 NNE 9 G 12 30.24 1024.1 0.00 492 0.049
22 13:00 38.5 28.9 38.5 35.0 68 NNE 9 G 13 30.25 1024.3 0.00 554 0.039
22 12:00 38.1 29.2 70 NNE 9 G 13 30.27 1025.1 0.00 599 0.029
22 11:00 37.8 28.2 68 N 15 G 20 30.25 1024.3 0.00 717 0.020
22 10:00 37.7 29.2 71 N 9 G 18 30.25 1024.2 0.00 534 0.012
22 09:00 36.8 28.3 71 N 9 G 17 30.21 1023.1 0.00 134 0.009
22 08:00 36.6 27.7 70 N 6 G 9 30.20 1022.8 0.00 83 0.007
22 07:00 35.3 27.5 37.0 35.2 73 NNW 4 G 13 30.18 1021.9 0.00 28 0.006
22 06:00 35.8 27.7 72 NW 7 G 11 30.15 1021.0 0.00 0 0.005
22 05:00 36.2 28.7 74 WNW 10 G 13 30.12 1019.9 0.00 0 0.004
22 04:00 36.6 28.8 73 WNW 10 G 15 30.09 1019.0 0.00 0 0.003
22 03:00 36.1 28.6 74 W 8 G 13 30.07 1018.3 0.00 0 0.002
22 02:00 36.6 29.1 74 W 5 G 12 30.05 1017.7 0.00 0 0.001
22 01:00 37.0 29.5 41.2 36.7 74 W 9 G 12 30.02 1016.6 0.00 0 0.000
22 00:00 37.5 28.6 70 WNW 11 G 14 29.99 1015.5 0.14 0 0.070
21 23:00 37.4 29.2 72 W 11 G 15 29.97 1015.0 0.14 0 0.068
21 22:00 38.4 29.1 69 WNW 11 G 17 29.97 1014.9 0.14 0 0.066
21 21:00 38.6 29.0 68 NW 7 G 11 29.96 1014.7 0.14 0 0.065
21 20:00 39.4 29.4 67 NW 8 G 17 29.94 1014.0 0.14 0 0.063
21 19:00 40.7 30.2 44.9 40.1 66 NW 11 G 16 29.90 1012.6 0.14 0 0.061
21 18:00 42.4 31.9 66 WNW 5 G 7 29.86 1011.1 0.14 0 0.060
21 17:00 43.8 32.8 65 NW 9 G 15 29.83 1010.4 0.14 18 0.057
21 16:00 44.2 33.2 65 NW 13 G 21 29.82 1009.9 0.14 49 0.050
21 15:00 44.2 32.8 64 NW 17 G 26 29.81 1009.4 0.14 417 0.041
21 14:00 43.1 35.0 73 NW 14 G 24 29.80 1009.1 0.14 585 0.030
21 13:00 40.1 36.5 40.2 33.3 87 WNW 10 G 14 29.79 1008.9 0.02 0.09 0.13 0.14 656 0.020
21 12:00 37.0 35.4 94 NW 8 G 14 29.80 1009.0 0.03 0.12 628 0.012
21 11:00 35.2 34.2 96 NW 6 G 13 29.80 1009.0 0.04 0.09 316 0.007
21 10:00 34.6 33.6 96 NNW 7 G 14 29.79 1008.7 0.03 0.04 0.05 367 0.004
21 09:00 33.9 33.1 97 NNW 5 G 11 29.80 1009.1 0.01 0.02 181 0.002
21 08:00 33.5 32.5 96 N 7 G 14 29.80 1009.1 0.01 60 0.001
21 07:00 34.1 33.1 34.2 28.2 96 N 7 G 12 29.78 1008.6 0.01 0.01 0.01 0.01 14 0.001
21 06:00 33.5 32.5 96 N 6 G 11 29.83 1010.3 0.00 0 0.001
21 05:00 33.8 32.5 95 SSW 9 G 11 29.85 1010.9 0.00 0 0.001
21 04:00 33.4 32.1 95 S 26 G 38 29.86 1011.2 0.00 0 0.000
21 03:00 32.2 30.9 95 S 17 G 26 29.93 1013.6 0.00 0 0.000
21 02:00 30.6 29.3 95 SE 12 G 22 30.04 1017.4 0.00 0 0.000
21 01:00 28.3 26.8 28.3 24.7 94 S 22 G 30 30.11 1019.8 0.00 0 0.000
21 00:00 27.6 26.1 94 S 12 G 22 30.17 1021.7 0.00 0 0.040
20 23:00 25.6 23.9 93 S 12 G 17 30.24 1024.0 0.00 0 0.040
20 22:00 25.2 22.4 89 S 12 G 17 30.29 1025.7 0.00 0 0.039
20 21:00 26.4 20.2 77 S 10 G 15 30.32 1026.7 0.00 0 0.038
20 20:00 27.0 16.4 64 SW 8 G 13 30.35 1027.7 0.00 0 0.037
20 19:00 27.6 16.3 28.4 26.0 62 SSW 7 G 10 30.38 1028.6 0.00 0 0.036
20 18:00 27.9 15.8 60 SW 8 G 13 30.41 1029.7 0.00 0 0.035
20 17:00 28.3 12.9 52 SW 5 G 9 30.42 1030.3 0.00 9 0.033
20 16:00 28.2 12.8 52 SW 6 G 11 30.44 1030.8 0.00 65 0.031
20 15:00 27.8 11.1 49 W 3 G 6 30.45 1031.2 0.00 114 0.028
20 14:00 26.9 11.6 52 W 2 G 4 30.46 1031.6 0.00 156 0.025

Data generated by WxSolution Version 1.9.1.1, Build 2017.11.27.